Time;durP1;ratioP1;P1;durP2;ratioP2;P2;SDS_P1;SDS_P2;PMS_P1;PMS_P2;Temp;Humidity;BMP_temperature;BMP_pressure;BME280_temperature;BME280_humidity;BME280_pressure;Samples;Min_cycle;Max_cycle;Signal;HPM_P1;HPM_P2
2022/12/08 00:01:24;;;;;;;1999.90;999.90;;;1.30;99.90;;;;;;5051395;28;20470;-70
2022/12/08 00:03:51;;;;;;;1999.90;999.90;;;1.20;99.90;;;;;;5051437;28;21033;-70
2022/12/08 00:09:21;;;;;;;1999.90;999.90;;;1.40;99.90;;;;;;5050172;28;20808;-68
2022/12/08 00:11:48;;;;;;;1999.90;999.90;;;1.50;99.90;;;;;;5044038;28;20491;-69
2022/12/08 00:14:15;;;;;;;1999.90;999.90;;;1.50;99.90;;;;;;5046341;28;20452;-69
2022/12/08 00:16:42;;;;;;;1999.90;999.90;;;1.60;99.90;;;;;;5030666;28;20449;-70
2022/12/08 00:19:09;;;;;;;1999.90;999.90;;;1.60;99.90;;;;;;5030454;28;20449;-69
2022/12/08 00:21:36;;;;;;;1999.90;999.90;;;1.70;99.90;;;;;;5030695;28;20468;-69
2022/12/08 00:24:02;;;;;;;1999.90;999.90;;;1.70;99.90;;;;;;5031866;28;20481;-69
2022/12/08 00:26:30;;;;;;;1999.90;999.90;;;1.90;99.90;;;;;;5032253;28;20448;-69
2022/12/08 00:28:59;;;;;;;1999.90;999.90;;;1.90;99.90;;;;;;5032094;28;20451;-69
2022/12/08 00:31:26;;;;;;;1999.90;999.90;;;1.90;99.90;;;;;;5031809;28;21002;-68
2022/12/08 00:33:53;;;;;;;1999.90;999.90;;;1.90;99.90;;;;;;5032396;28;20819;-68
2022/12/08 00:36:20;;;;;;;1999.90;999.90;;;2.00;99.90;;;;;;5031959;28;20465;-68
2022/12/08 00:38:47;;;;;;;1999.90;999.90;;;2.00;99.90;;;;;;5031767;28;20829;-68
2022/12/08 00:41:15;;;;;;;1999.90;999.90;;;1.80;99.90;;;;;;5031974;28;20475;-68
2022/12/08 00:43:47;;;;;;;1999.90;999.90;;;1.60;99.90;;;;;;5031642;28;21246;-69
2022/12/08 00:46:19;;;;;;;1999.90;999.90;;;1.60;99.90;;;;;;5031965;28;20449;-68
2022/12/08 00:48:46;;;;;;;1999.90;999.90;;;1.70;99.90;;;;;;5031282;28;20449;-68
2022/12/08 00:51:12;;;;;;;1999.90;999.90;;;1.60;99.90;;;;;;5032052;28;20465;-68
2022/12/08 00:53:39;;;;;;;1999.90;999.90;;;1.50;99.90;;;;;;5031824;28;20433;-69
2022/12/08 00:56:06;;;;;;;1999.90;999.90;;;1.60;99.90;;;;;;5031914;28;20449;-68
2022/12/08 00:58:33;;;;;;;1999.90;999.90;;;1.50;99.90;;;;;;5031205;28;20874;-68
2022/12/08 01:01:01;;;;;;;1999.90;999.90;;;1.40;99.90;;;;;;5031401;28;20461;-69
2022/12/08 01:03:28;;;;;;;1999.90;999.90;;;1.20;99.90;;;;;;5031535;28;20481;-69
2022/12/08 01:05:55;;;;;;;1999.90;999.90;;;1.20;99.90;;;;;;5031570;28;20449;-69
2022/12/08 01:08:21;;;;;;;1999.90;999.90;;;1.20;99.90;;;;;;5031329;28;20456;-69
2022/12/08 01:10:48;;;;;;;1999.90;999.90;;;1.00;99.90;;;;;;5030678;28;20445;-68
2022/12/08 01:13:15;;;;;;;1999.90;999.90;;;1.10;99.90;;;;;;5031333;28;20445;-69
2022/12/08 01:15:42;;;;;;;1999.90;999.90;;;1.00;99.90;;;;;;5031416;28;20823;-68
2022/12/08 01:18:10;;;;;;;1999.90;999.90;;;0.90;99.90;;;;;;5031983;28;20445;-68
2022/12/08 01:20:36;;;;;;;1999.90;999.90;;;0.80;99.90;;;;;;5046023;28;20843;-68
2022/12/08 01:23:03;;;;;;;1999.90;999.90;;;0.70;99.90;;;;;;5052919;28;20443;-68
2022/12/08 01:25:30;;;;;;;1999.90;999.90;;;0.70;99.90;;;;;;5044445;28;20448;-68
2022/12/08 01:27:57;;;;;;;1999.90;999.90;;;0.70;99.90;;;;;;5057201;28;20439;-69
2022/12/08 01:30:23;;;;;;;1999.90;999.90;;;0.60;99.90;;;;;;5047067;28;20463;-68
2022/12/08 01:32:50;;;;;;;1999.90;999.90;;;0.60;99.90;;;;;;5051166;28;20466;-68
2022/12/08 01:35:18;;;;;;;1999.90;999.90;;;0.50;99.90;;;;;;5059810;28;20452;-68
2022/12/08 01:37:45;;;;;;;1999.90;999.90;;;0.30;99.90;;;;;;5061968;28;20497;-68
2022/12/08 01:40:12;;;;;;;1999.90;999.90;;;0.30;99.90;;;;;;5068200;28;20450;-68
2022/12/08 01:42:39;;;;;;;1999.90;999.90;;;0.20;99.90;;;;;;5060740;28;20808;-68
2022/12/08 01:45:13;;;;;;;1999.90;999.90;;;0.20;99.90;;;;;;5045548;28;20480;-68
2022/12/08 01:47:44;;;;;;;1999.90;999.90;;;0.20;99.90;;;;;;5053132;28;20443;-68
2022/12/08 01:50:14;;;;;;;1999.90;999.90;;;0.30;99.90;;;;;;5053216;28;20461;-68
2022/12/08 01:52:48;;;;;;;1999.90;999.90;;;0.30;99.90;;;;;;5049501;28;20518;-68
2022/12/08 01:55:20;;;;;;;1999.90;999.90;;;0.40;99.90;;;;;;5046582;28;20440;-68
2022/12/08 01:57:49;;;;;;;1999.90;999.90;;;0.40;99.90;;;;;;5047241;28;20443;-69
2022/12/08 02:00:18;;;;;;;1999.90;999.90;;;0.20;99.90;;;;;;5046195;28;21704;-69
2022/12/08 02:02:53;;;;;;;1999.90;999.90;;;0.20;99.90;;;;;;5052298;28;20455;-69
2022/12/08 02:05:23;;;;;;;1999.90;999.90;;;0.00;99.90;;;;;;5044696;28;20481;-69
2022/12/08 02:07:52;;;;;;;1999.90;999.90;;;0.10;99.90;;;;;;5042042;28;20543;-67
2022/12/08 02:10:22;;;;;;;1999.90;999.90;;;0.10;99.90;;;;;;5046701;28;20448;-69
2022/12/08 02:12:51;;;;;;;1999.90;999.90;;;0.00;99.90;;;;;;5050066;28;20981;-68
2022/12/08 02:15:19;;;;;;;1999.90;999.90;;;0.00;99.90;;;;;;5049952;28;20440;-69
2022/12/08 02:18:02;;;;;;;1999.90;999.90;;;0.10;99.90;;;;;;5049758;28;20945;-68
2022/12/08 02:20:45;;;;;;;1999.90;999.90;;;0.10;99.90;;;;;;5049342;28;20942;-68
2022/12/08 02:23:24;;;;;;;1999.90;999.90;;;0.00;99.90;;;;;;5050000;28;20822;-69
2022/12/08 02:26:35;;;;;;;1999.90;999.90;;;0.10;99.90;;;;;;5049839;28;20474;-68
2022/12/08 02:29:36;;;;;;;1999.90;999.90;;;0.10;99.90;;;;;;5028284;28;20456;-68
2022/12/08 02:32:22;;;;;;;1999.90;999.90;;;0.00;99.90;;;;;;5049562;28;20994;-68
2022/12/08 02:34:57;;;;;;;1999.90;999.90;;;0.00;99.90;;;;;;5049975;28;20452;-68
2022/12/08 02:37:29;;;;;;;1999.90;999.90;;;0.00;99.90;;;;;;5049795;28;20455;-69
2022/12/08 02:40:02;;;;;;;1999.90;999.90;;;-0.10;99.90;;;;;;5049539;28;20455;-68
2022/12/08 02:42:35;;;;;;;1999.90;999.90;;;-0.10;99.90;;;;;;5049543;28;20464;-69
2022/12/08 02:45:08;;;;;;;1999.90;999.90;;;-0.10;99.90;;;;;;5050331;28;20850;-68
2022/12/08 02:47:36;;;;;;;1999.90;999.90;;;-0.10;99.90;;;;;;5049657;28;20440;-69
2022/12/08 02:50:04;;;;;;;1999.90;999.90;;;-0.20;99.90;;;;;;5049221;28;20447;-68
2022/12/08 02:52:45;;;;;;;1999.90;999.90;;;-0.20;99.90;;;;;;5049508;28;20472;-68
2022/12/08 02:55:19;;;;;;;1999.90;999.90;;;-0.20;99.90;;;;;;5049754;28;20443;-69
2022/12/08 02:58:10;;;;;;;1999.90;999.90;;;-0.20;99.90;;;;;;5049786;28;20836;-69
2022/12/08 03:00:48;;;;;;;1999.90;999.90;;;-0.30;99.90;;;;;;5049809;28;20471;-68
2022/12/08 03:03:25;;;;;;;1999.90;999.90;;;-0.30;99.90;;;;;;5049600;28;20455;-68
2022/12/08 03:06:05;;;;;;;1999.90;999.90;;;-0.40;99.90;;;;;;5049584;28;20444;-68
2022/12/08 03:08:36;;;;;;;1999.90;999.90;;;-0.40;99.90;;;;;;5049229;28;20435;-69
2022/12/08 03:11:10;;;;;;;1999.90;999.90;;;-0.40;99.90;;;;;;5049735;28;20463;-68
2022/12/08 03:13:42;;;;;;;1999.90;999.90;;;-0.50;99.90;;;;;;5049265;28;20444;-69
2022/12/08 03:16:11;;;;;;;1999.90;999.90;;;-0.50;99.90;;;;;;5049404;28;20443;-68
2022/12/08 03:18:42;;;;;;;1999.90;999.90;;;-0.50;99.90;;;;;;5049329;28;20448;-68
2022/12/08 03:21:13;;;;;;;1999.90;999.90;;;-0.40;99.90;;;;;;5049538;28;20459;-68
2022/12/08 03:23:42;;;;;;;1999.90;999.90;;;-0.40;99.90;;;;;;5049440;28;20447;-68
2022/12/08 03:26:15;;;;;;;1999.90;999.90;;;-0.40;99.90;;;;;;5049132;28;20450;-69
2022/12/08 03:28:42;;;;;;;1999.90;999.90;;;-0.50;99.90;;;;;;5049210;28;20452;-69
2022/12/08 03:31:14;;;;;;;1999.90;999.90;;;-0.50;99.90;;;;;;5049235;28;20460;-69
2022/12/08 03:33:44;;;;;;;1999.90;999.90;;;-0.50;99.90;;;;;;5052126;28;20448;-68
2022/12/08 03:36:14;;;;;;;1999.90;999.90;;;-0.60;99.90;;;;;;5052955;28;20460;-68
2022/12/08 03:38:43;;;;;;;1999.90;999.90;;;-0.50;99.90;;;;;;5052835;28;20440;-69
2022/12/08 03:41:19;;;;;;;1999.90;999.90;;;-0.40;99.90;;;;;;5052539;28;20853;-68
2022/12/08 03:43:47;;;;;;;1999.90;999.90;;;-0.40;99.90;;;;;;5052963;28;20451;-68
2022/12/08 03:46:14;;;;;;;1999.90;999.90;;;-0.40;99.90;;;;;;5052873;28;20501;-68
2022/12/08 03:48:41;;;;;;;1999.90;999.90;;;-0.40;99.90;;;;;;5052818;28;20458;-68
2022/12/08 03:51:08;;;;;;;1999.90;999.90;;;-0.40;99.90;;;;;;5053101;28;20475;-68
2022/12/08 03:53:36;;;;;;;1999.90;999.90;;;-0.40;99.90;;;;;;5052832;28;20448;-68
2022/12/08 03:56:05;;;;;;;1999.90;999.90;;;-0.50;99.90;;;;;;5052682;28;20447;-68
2022/12/08 03:58:31;;;;;;;1999.90;999.90;;;-0.40;99.90;;;;;;5052446;28;20938;-68
2022/12/08 04:00:58;;;;;;;1999.90;999.90;;;-0.50;99.90;;;;;;5052745;28;20842;-68
2022/12/08 04:03:25;;;;;;;1999.90;999.90;;;-0.60;99.90;;;;;;5052505;28;20452;-68
2022/12/08 04:05:52;;;;;;;1999.90;999.90;;;-0.50;99.90;;;;;;5052642;28;20483;-68
2022/12/08 04:08:18;;;;;;;1999.90;999.90;;;-0.60;99.90;;;;;;5052200;28;20498;-68
2022/12/08 04:10:46;;;;;;;1999.90;999.90;;;-0.70;99.90;;;;;;5052576;28;20448;-68
2022/12/08 04:13:13;;;;;;;1999.90;999.90;;;-0.70;99.90;;;;;;5052221;28;20447;-69
2022/12/08 04:15:44;;;;;;;1999.90;999.90;;;-0.80;99.90;;;;;;5052398;28;20444;-68
2022/12/08 04:18:11;;;;;;;1999.90;999.90;;;-0.60;99.90;;;;;;5052129;28;20448;-68
2022/12/08 04:20:39;;;;;;;1999.90;999.90;;;-0.60;99.90;;;;;;5052057;28;21000;-68
2022/12/08 04:23:05;;;;;;;1999.90;999.90;;;-0.70;99.90;;;;;;5052320;28;20455;-69
2022/12/08 04:25:32;;;;;;;1999.90;999.90;;;-0.60;99.90;;;;;;5051998;28;20997;-68
2022/12/08 04:28:00;;;;;;;1999.90;999.90;;;-0.60;99.90;;;;;;5052445;28;20840;-69
2022/12/08 04:30:27;;;;;;;1999.90;999.90;;;-0.70;99.90;;;;;;5051932;28;20447;-68
2022/12/08 04:32:54;;;;;;;1999.90;999.90;;;-0.70;99.90;;;;;;5052424;28;20467;-69
2022/12/08 04:35:21;;;;;;;1999.90;999.90;;;-0.70;99.90;;;;;;5052099;28;20452;-68
2022/12/08 04:37:47;;;;;;;1999.90;999.90;;;-0.60;99.90;;;;;;5052142;28;20454;-68
2022/12/08 04:40:14;;;;;;;1999.90;999.90;;;-0.70;99.90;;;;;;5051685;28;20466;-69
2022/12/08 04:42:41;;;;;;;1999.90;999.90;;;-0.70;99.90;;;;;;5052142;28;20471;-68
2022/12/08 04:45:10;;;;;;;1999.90;999.90;;;-0.70;99.90;;;;;;5051249;28;20486;-68
2022/12/08 04:47:37;;;;;;;1999.90;999.90;;;-0.80;99.90;;;;;;5051913;28;20531;-68
2022/12/08 04:50:05;;;;;;;1999.90;999.90;;;-0.80;99.90;;;;;;5051435;28;20443;-68
2022/12/08 04:52:32;;;;;;;1999.90;999.90;;;-0.80;99.90;;;;;;5051796;28;20464;-68
2022/12/08 04:54:59;;;;;;;1999.90;999.90;;;-0.90;99.90;;;;;;5051747;28;20444;-68
2022/12/08 04:57:26;;;;;;;1999.90;999.90;;;-0.90;99.90;;;;;;5051800;28;20444;-68
2022/12/08 04:59:53;;;;;;;1999.90;999.90;;;-0.90;99.90;;;;;;5051508;28;20452;-69
2022/12/08 05:02:21;;;;;;;1999.90;999.90;;;-0.80;99.90;;;;;;5051492;28;20464;-69
2022/12/08 05:04:48;;;;;;;1999.90;999.90;;;-0.80;99.90;;;;;;5051858;28;20476;-69
2022/12/08 05:07:14;;;;;;;1999.90;999.90;;;-0.80;99.90;;;;;;5051683;28;20448;-69
2022/12/08 05:09:41;;;;;;;1999.90;999.90;;;-0.80;99.90;;;;;;5051573;28;20447;-68
2022/12/08 05:12:08;;;;;;;1999.90;999.90;;;-0.80;99.90;;;;;;5051336;28;20495;-69
2022/12/08 05:14:35;;;;;;;1999.90;999.90;;;-0.80;99.90;;;;;;5051603;28;20444;-68
2022/12/08 05:17:02;;;;;;;1999.90;999.90;;;-0.80;99.90;;;;;;5051586;28;20470;-69
2022/12/08 05:19:30;;;;;;;1999.90;999.90;;;-0.70;99.90;;;;;;5051365;28;20448;-69
2022/12/08 05:21:56;;;;;;;1999.90;999.90;;;-0.80;99.90;;;;;;5051744;28;20478;-69
2022/12/08 05:24:23;;;;;;;1999.90;999.90;;;-0.80;99.90;;;;;;5051546;28;20444;-69
2022/12/08 05:26:50;;;;;;;1999.90;999.90;;;-0.80;99.90;;;;;;5051676;28;20448;-68
2022/12/08 05:29:17;;;;;;;1999.90;999.90;;;-0.90;99.90;;;;;;5051135;28;20523;-69
2022/12/08 05:31:44;;;;;;;1999.90;999.90;;;-1.00;99.90;;;;;;5051085;28;20468;-67
2022/12/08 05:34:10;;;;;;;1999.90;999.90;;;-1.10;99.90;;;;;;5051064;28;20454;-68
2022/12/08 05:36:38;;;;;;;1999.90;999.90;;;-1.00;99.90;;;;;;5051525;28;20443;-68
2022/12/08 05:39:05;;;;;;;1999.90;999.90;;;-1.10;99.90;;;;;;5050957;28;20444;-68
2022/12/08 05:41:32;;;;;;;1999.90;999.90;;;-1.00;99.90;;;;;;5051047;28;20465;-69
2022/12/08 05:43:59;;;;;;;1999.90;999.90;;;-1.00;99.90;;;;;;5050967;28;20451;-69
2022/12/08 05:46:26;;;;;;;1999.90;999.90;;;-1.00;99.90;;;;;;5050921;28;20484;-70
2022/12/08 05:48:52;;;;;;;1999.90;999.90;;;-0.90;99.90;;;;;;5050985;28;20819;-70
2022/12/08 05:51:21;;;;;;;1999.90;999.90;;;-0.90;99.90;;;;;;5050482;28;20989;-68
2022/12/08 05:53:51;;;;;;;1999.90;999.90;;;-0.90;99.90;;;;;;5051140;28;20444;-73
2022/12/08 05:56:18;;;;;;;1999.90;999.90;;;-0.90;99.90;;;;;;5049681;28;20448;-69
2022/12/08 05:58:46;;;;;;;1999.90;999.90;;;-0.90;99.90;;;;;;5050429;28;20444;-69
2022/12/08 06:01:19;;;;;;;1999.90;999.90;;;-0.90;99.90;;;;;;5050642;28;20594;-69
2022/12/08 06:03:46;;;;;;;1999.90;999.90;;;-0.90;99.90;;;;;;5050959;28;20455;-67
2022/12/08 06:06:13;;;;;;;1999.90;999.90;;;-0.90;99.90;;;;;;5050490;28;20483;-67
2022/12/08 06:08:40;;;;;;;1999.90;999.90;;;-0.90;99.90;;;;;;5050211;28;20451;-68
2022/12/08 06:11:09;;;;;;;1999.90;999.90;;;-0.90;99.90;;;;;;5040251;28;20547;-68
2022/12/08 06:13:35;;;;;;;1999.90;999.90;;;-0.90;99.90;;;;;;5039495;28;20449;-69
2022/12/08 06:16:04;;;;;;;1999.90;999.90;;;-1.00;99.90;;;;;;5039116;28;20440;-68
2022/12/08 06:18:31;;;;;;;1999.90;999.90;;;-1.00;99.90;;;;;;5044068;28;20455;-68
2022/12/08 06:21:03;;;;;;;1999.90;999.90;;;-1.00;99.90;;;;;;5050777;28;20547;-70
2022/12/08 06:23:29;;;;;;;1999.90;999.90;;;-1.00;99.90;;;;;;5049720;28;20448;-68
2022/12/08 06:26:00;;;;;;;1999.90;999.90;;;-1.00;99.90;;;;;;5050035;28;20483;-68
2022/12/08 06:28:29;;;;;;;1999.90;999.90;;;-0.90;99.90;;;;;;5050748;28;20451;-69
2022/12/08 06:30:55;;;;;;;1999.90;999.90;;;-0.90;99.90;;;;;;5051851;28;20471;-68
2022/12/08 06:33:22;;;;;;;1999.90;999.90;;;-1.00;99.90;;;;;;5050495;28;20444;-69
2022/12/08 06:35:49;;;;;;;1999.90;999.90;;;-1.00;99.90;;;;;;5049847;28;20458;-67
2022/12/08 06:38:16;;;;;;;1999.90;999.90;;;-1.00;99.90;;;;;;5049384;28;20825;-70
2022/12/08 06:40:43;;;;;;;1999.90;999.90;;;-1.00;99.90;;;;;;5049954;28;20451;-70
2022/12/08 06:43:10;;;;;;;1999.90;999.90;;;-1.00;99.90;;;;;;5049989;28;20448;-68
2022/12/08 06:45:41;;;;;;;1999.90;999.90;;;-1.20;99.90;;;;;;5048389;28;20483;-69
2022/12/08 06:48:07;;;;;;;1999.90;999.90;;;-1.20;99.90;;;;;;5048018;28;20444;-68
2022/12/08 06:50:34;;;;;;;1999.90;999.90;;;-1.20;99.90;;;;;;5047678;28;20440;-70
2022/12/08 06:53:01;;;;;;;1999.90;999.90;;;-1.20;99.90;;;;;;5047874;28;20525;-69
2022/12/08 06:55:28;;;;;;;1999.90;999.90;;;-1.20;99.90;;;;;;5048114;28;20830;-68
2022/12/08 06:57:55;;;;;;;1999.90;999.90;;;-1.00;99.90;;;;;;5048041;28;20444;-69
2022/12/08 07:00:22;;;;;;;1999.90;999.90;;;-1.00;99.90;;;;;;5048650;28;20466;-70
2022/12/08 07:02:50;;;;;;;1999.90;999.90;;;-1.00;99.90;;;;;;5049611;28;20463;-69
2022/12/08 07:05:17;;;;;;;1999.90;999.90;;;-0.90;99.90;;;;;;5049302;28;20484;-69
2022/12/08 07:07:44;;;;;;;1999.90;999.90;;;-1.10;99.90;;;;;;5050972;28;20498;-70
2022/12/08 07:10:11;;;;;;;1999.90;999.90;;;-1.10;99.90;;;;;;5053428;28;20824;-68
2022/12/08 07:12:38;;;;;;;1999.90;999.90;;;-1.00;99.90;;;;;;5053439;28;20468;-69
2022/12/08 07:15:05;;;;;;;1999.90;999.90;;;-1.00;99.90;;;;;;5053360;28;20462;-68
2022/12/08 07:17:32;;;;;;;1999.90;999.90;;;-0.90;99.90;;;;;;5053660;28;20797;-69
2022/12/08 07:20:00;;;;;;;1999.90;999.90;;;-0.80;99.90;;;;;;5052916;28;20929;-69
2022/12/08 07:22:27;;;;;;;1999.90;999.90;;;-0.80;99.90;;;;;;5053278;28;20472;-68
2022/12/08 07:24:53;;;;;;;1999.90;999.90;;;-0.90;99.90;;;;;;5053292;28;20440;-69
2022/12/08 07:27:20;;;;;;;1999.90;999.90;;;-0.80;99.90;;;;;;5052833;28;20443;-67
2022/12/08 07:29:47;;;;;;;1999.90;999.90;;;-0.90;99.90;;;;;;5053087;28;20466;-68
2022/12/08 07:32:14;;;;;;;1999.90;999.90;;;-1.00;99.90;;;;;;5053065;28;20463;-68
2022/12/08 07:34:40;;;;;;;1999.90;999.90;;;-0.80;99.90;;;;;;5053145;28;20459;-68
2022/12/08 07:37:09;;;;;;;1999.90;999.90;;;-0.80;99.90;;;;;;5053269;28;20443;-68
2022/12/08 07:39:35;;;;;;;1999.90;999.90;;;-0.70;99.90;;;;;;5052980;28;20474;-68
2022/12/08 07:42:02;;;;;;;1999.90;999.90;;;-0.70;99.90;;;;;;5052886;28;20474;-68
2022/12/08 07:44:29;;;;;;;1999.90;999.90;;;-0.80;99.90;;;;;;5053061;28;20443;-67
2022/12/08 07:46:56;;;;;;;1999.90;999.90;;;-0.90;99.90;;;;;;5052361;28;20517;-68
2022/12/08 07:49:22;;;;;;;1999.90;999.90;;;-0.90;99.90;;;;;;5052545;28;20519;-69
2022/12/08 07:51:49;;;;;;;1999.90;999.90;;;-0.80;99.90;;;;;;5052876;28;20467;-68
2022/12/08 07:54:17;;;;;;;1999.90;999.90;;;-0.70;99.90;;;;;;5052762;28;20447;-69
2022/12/08 07:56:44;;;;;;;1999.90;999.90;;;-0.70;99.90;;;;;;5052810;28;20440;-69
2022/12/08 07:59:11;;;;;;;1999.90;999.90;;;-0.60;99.90;;;;;;5052244;28;21245;-69
2022/12/08 08:01:38;;;;;;;1999.90;999.90;;;-0.50;99.90;;;;;;5052365;28;20861;-67
2022/12/08 08:04:06;;;;;;;1999.90;999.90;;;-0.50;99.90;;;;;;5052746;28;20452;-70
2022/12/08 08:06:35;;;;;;;1999.90;999.90;;;-0.50;99.90;;;;;;5052702;28;20480;-68
2022/12/08 08:09:02;;;;;;;1999.90;999.90;;;-0.40;99.90;;;;;;5052279;28;20452;-68
2022/12/08 08:11:30;;;;;;;1999.90;999.90;;;-0.30;99.90;;;;;;5052483;28;20467;-68
2022/12/08 08:13:57;;;;;;;1999.90;999.90;;;-0.20;99.90;;;;;;5052266;28;20995;-69
2022/12/08 08:16:23;;;;;;;1999.90;999.90;;;0.00;99.90;;;;;;5052502;28;21122;-68
2022/12/08 08:18:51;;;;;;;1999.90;999.90;;;0.10;99.90;;;;;;5051148;28;20807;-68
2022/12/08 08:21:20;;;;;;;1999.90;999.90;;;0.20;99.90;;;;;;5052105;28;20463;-68
2022/12/08 08:23:47;;;;;;;1999.90;999.90;;;0.30;99.90;;;;;;5052394;28;20444;-68
2022/12/08 08:26:13;;;;;;;1999.90;999.90;;;0.50;99.90;;;;;;5052232;28;20471;-68
2022/12/08 08:28:42;;;;;;;1999.90;999.90;;;0.50;99.90;;;;;;5051783;28;20450;-68
2022/12/08 08:31:09;;;;;;;1999.90;999.90;;;0.60;99.90;;;;;;5052118;28;20529;-68
2022/12/08 08:33:36;;;;;;;1999.90;999.90;;;0.80;99.90;;;;;;5052085;28;20964;-68
2022/12/08 08:36:06;;;;;;;1999.90;999.90;;;0.90;99.90;;;;;;5051995;28;21003;-68
2022/12/08 08:38:33;;;;;;;1999.90;999.90;;;1.10;99.90;;;;;;5051819;28;20495;-68
2022/12/08 08:41:01;;;;;;;1999.90;999.90;;;1.20;99.90;;;;;;5051781;28;20978;-68
2022/12/08 08:43:28;;;;;;;1999.90;999.90;;;1.30;99.90;;;;;;5051780;28;20445;-69
2022/12/08 08:45:58;;;;;;;1999.90;999.90;;;1.40;99.90;;;;;;5051989;28;20483;-67
2022/12/08 08:48:25;;;;;;;1999.90;999.90;;;1.50;99.90;;;;;;5051857;28;20452;-67
2022/12/08 08:50:52;;;;;;;1999.90;999.90;;;1.50;99.90;;;;;;5051767;28;20871;-67
2022/12/08 08:53:19;;;;;;;1999.90;999.90;;;1.50;99.90;;;;;;5051792;28;20451;-68
2022/12/08 08:55:46;;;;;;;1999.90;999.90;;;1.60;99.90;;;;;;5052253;28;20440;-71
2022/12/08 08:58:14;;;;;;;1999.90;999.90;;;1.60;99.90;;;;;;5051952;28;20990;-70
2022/12/08 09:00:40;;;;;;;1999.90;999.90;;;1.80;99.90;;;;;;5051689;28;20969;-68
2022/12/08 09:03:09;;;;;;;1999.90;999.90;;;1.90;99.90;;;;;;5052023;28;20448;-68
2022/12/08 09:05:38;;;;;;;1999.90;999.90;;;2.00;99.90;;;;;;5051700;28;20703;-68
2022/12/08 09:08:05;;;;;;;1999.90;999.90;;;2.00;99.90;;;;;;5051321;28;20444;-68
2022/12/08 09:10:32;;;;;;;1999.90;999.90;;;2.20;99.90;;;;;;5051257;28;20967;-69
2022/12/08 09:12:58;;;;;;;1999.90;999.90;;;2.20;99.90;;;;;;5051391;28;20467;-69
2022/12/08 09:15:25;;;;;;;1999.90;999.90;;;2.20;99.90;;;;;;5051545;28;20968;-69
2022/12/08 09:17:52;;;;;;;1999.90;999.90;;;2.20;99.90;;;;;;5051164;28;20996;-69
2022/12/08 09:20:20;;;;;;;1999.90;999.90;;;2.30;99.90;;;;;;5050953;28;20801;-69
2022/12/08 09:22:47;;;;;;;1999.90;999.90;;;2.20;99.90;;;;;;5050928;28;20551;-69
2022/12/08 09:25:14;;;;;;;1999.90;999.90;;;2.30;99.90;;;;;;5051425;28;20444;-69
2022/12/08 09:27:40;;;;;;;1999.90;999.90;;;2.30;99.90;;;;;;5051250;28;20430;-69
2022/12/08 09:30:08;;;;;;;1999.90;999.90;;;2.30;99.90;;;;;;5050851;28;20440;-69
2022/12/08 09:32:35;;;;;;;1999.90;999.90;;;2.30;99.90;;;;;;5050714;28;20464;-69
2022/12/08 09:35:02;;;;;;;1999.90;999.90;;;2.40;99.90;;;;;;5051091;28;20832;-70
2022/12/08 09:37:30;;;;;;;1999.90;999.90;;;2.40;99.90;;;;;;5051182;28;20436;-70
2022/12/08 09:39:57;;;;;;;1999.90;999.90;;;2.50;99.90;;;;;;5050701;28;20450;-70
2022/12/08 09:42:33;;;;;;;1999.90;999.90;;;2.50;99.90;;;;;;5051024;28;20462;-70
2022/12/08 09:45:04;;;;;;;1999.90;999.90;;;2.50;99.90;;;;;;5050780;28;20443;-70
2022/12/08 09:47:35;;;;;;;1999.90;999.90;;;2.60;99.90;;;;;;5050769;28;20483;-70
2022/12/08 09:50:08;;;;;;;1999.90;999.90;;;2.60;99.90;;;;;;5051348;28;20454;-70
2022/12/08 09:52:41;;;;;;;1999.90;999.90;;;2.60;99.90;;;;;;5051186;28;20491;-66
2022/12/08 09:55:17;;;;;;;1999.90;999.90;;;2.70;99.90;;;;;;5050755;28;20510;-67
2022/12/08 09:57:44;;;;;;;1999.90;999.90;;;2.80;99.90;;;;;;5050588;28;20443;-67
2022/12/08 10:00:14;;;;;;;1999.90;999.90;;;2.90;99.90;;;;;;5050259;28;20853;-68
2022/12/08 10:02:42;;;;;;;1999.90;999.90;;;2.90;99.90;;;;;;5050569;28;20471;-67
2022/12/08 10:05:14;;;;;;;1999.90;999.90;;;2.90;99.90;;;;;;5050544;28;20938;-68
2022/12/08 10:07:46;;;;;;;1999.90;999.90;;;3.00;99.90;;;;;;5050393;28;20482;-68
2022/12/08 10:10:24;;;;;;;1999.90;999.90;;;3.10;99.90;;;;;;5050161;28;20448;-68
2022/12/08 10:12:54;;;;;;;1999.90;999.90;;;3.30;99.90;;;;;;5050211;28;20468;-68
2022/12/08 10:15:39;;;;;;;1999.90;999.90;;;3.70;99.90;;;;;;5050123;28;20938;-68
2022/12/08 10:18:14;;;;;;;1999.90;999.90;;;4.50;99.90;;;;;;5049460;28;20452;-68
2022/12/08 10:20:43;;;;;;;1999.90;999.90;;;5.30;99.90;;;;;;5046385;28;20555;-68
2022/12/08 10:23:21;;;;;;;1999.90;999.90;;;6.20;99.90;;;;;;5042078;28;20440;-68
2022/12/08 10:25:50;;;;;;;1999.90;999.90;;;7.10;99.90;;;;;;5050319;28;20443;-69
2022/12/08 10:28:17;;;;;;;1999.90;999.90;;;7.80;99.90;;;;;;5049948;28;20444;-68
2022/12/08 10:30:44;;;;;;;1999.90;999.90;;;8.50;99.90;;;;;;5049985;28;20440;-68
2022/12/08 10:33:15;;;;;;;1999.90;999.90;;;8.80;99.90;;;;;;5049972;28;20444;-68
2022/12/08 10:35:47;;;;;;;1999.90;999.90;;;9.00;99.90;;;;;;5049992;28;20456;-68
2022/12/08 10:38:22;;;;;;;1999.90;999.90;;;9.00;99.90;;;;;;5050011;28;20448;-68
2022/12/08 10:40:51;;;;;;;1999.90;999.90;;;8.50;99.90;;;;;;5049939;28;20447;-68
2022/12/08 10:43:22;;;;;;;1999.90;999.90;;;8.60;99.90;;;;;;5049483;28;20455;-69
2022/12/08 10:45:48;;;;;;;1999.90;999.90;;;8.80;99.90;;;;;;5049859;28;20965;-68
2022/12/08 10:48:19;;;;;;;1999.90;999.90;;;8.70;99.90;;;;;;5049282;28;20439;-68
2022/12/08 10:50:52;;;;;;;1999.90;999.90;;;8.40;99.90;;;;;;5049857;28;20444;-67
2022/12/08 10:53:23;;;;;;;1999.90;999.90;;;8.30;99.90;;;;;;5049923;28;20526;-67
2022/12/08 10:55:53;;;;;;;1999.90;999.90;;;8.30;99.90;;;;;;5049929;28;20439;-69
2022/12/08 10:58:29;;;;;;;1999.90;999.90;;;8.00;99.90;;;;;;5049388;28;21157;-69
2022/12/08 11:00:59;;;;;;;1999.90;999.90;;;7.80;99.90;;;;;;5049939;28;20471;-68
2022/12/08 11:03:30;;;;;;;1999.90;999.90;;;7.50;99.90;;;;;;5049962;28;20825;-69
2022/12/08 11:05:59;;;;;;;1999.90;999.90;;;7.20;99.90;;;;;;5049942;28;20451;-67
2022/12/08 11:08:28;;;;;;;1999.90;999.90;;;7.20;99.90;;;;;;5049429;28;20446;-67
2022/12/08 11:10:55;;;;;;;1999.90;999.90;;;7.20;99.90;;;;;;5050301;28;20451;-67
2022/12/08 11:13:25;;;;;;;1999.90;999.90;;;6.90;99.90;;;;;;5052733;28;20448;-66
2022/12/08 11:15:53;;;;;;;1999.90;999.90;;;6.80;99.90;;;;;;5050296;28;20450;-68
2022/12/08 11:18:27;;;;;;;1999.90;999.90;;;6.70;99.90;;;;;;5049684;28;20444;-67
2022/12/08 11:21:07;;;;;;;1999.90;999.90;;;6.70;99.90;;;;;;5049756;28;20451;-69
2022/12/08 11:23:37;;;;;;;1999.90;999.90;;;6.90;99.90;;;;;;5049392;28;20447;-69
2022/12/08 11:26:11;;;;;;;1999.90;999.90;;;7.00;99.90;;;;;;5049929;28;20448;-69
2022/12/08 11:28:38;;;;;;;1999.90;999.90;;;7.00;99.90;;;;;;5049327;28;20484;-68
2022/12/08 11:31:16;;;;;;;1999.90;999.90;;;7.00;99.90;;;;;;5047591;28;20555;-68
2022/12/08 11:33:44;;;;;;;1999.90;999.90;;;7.00;99.90;;;;;;5049044;28;20455;-69
2022/12/08 11:36:14;;;;;;;1999.90;999.90;;;7.00;99.90;;;;;;5041581;28;20456;-68
2022/12/08 11:38:46;;;;;;;1999.90;999.90;;;7.00;99.90;;;;;;5048006;28;21173;-68
2022/12/08 11:41:16;;;;;;;1999.90;999.90;;;7.10;99.90;;;;;;5028105;28;20849;-68
2022/12/08 11:43:48;;;;;;;1999.90;999.90;;;7.20;99.90;;;;;;5028880;28;20445;-68
2022/12/08 11:46:20;;;;;;;1999.90;999.90;;;7.20;99.90;;;;;;5029212;28;20473;-68
2022/12/08 11:48:52;;;;;;;1999.90;999.90;;;7.30;99.90;;;;;;5029121;28;20448;-68
2022/12/08 11:51:27;;;;;;;1999.90;999.90;;;7.10;99.90;;;;;;5029691;28;20464;-71
2022/12/08 11:54:10;;;;;;;1999.90;999.90;;;7.20;99.90;;;;;;5031030;28;20440;-70
2022/12/08 11:56:40;;;;;;;1999.90;999.90;;;7.30;99.90;;;;;;5033371;28;20491;-70
2022/12/08 11:59:15;;;;;;;1999.90;999.90;;;7.40;99.90;;;;;;5032842;28;20455;-69
2022/12/08 12:01:42;;;;;;;1999.90;999.90;;;7.50;99.90;;;;;;5033299;28;20468;-69
2022/12/08 12:04:17;;;;;;;1999.90;999.90;;;7.40;99.90;;;;;;5032847;28;20444;-69
2022/12/08 12:07:11;;;;;;;1999.90;999.90;;;7.40;99.90;;;;;;5033881;28;21195;-69
2022/12/08 12:09:51;;;;;;;1999.90;999.90;;;7.40;99.90;;;;;;5052459;28;20452;-69
2022/12/08 12:12:30;;;;;;;1999.90;999.90;;;7.40;99.90;;;;;;5051549;28;20836;-69
2022/12/08 12:15:27;;;;;;;1999.90;999.90;;;7.40;99.90;;;;;;5050185;28;20448;-69
2022/12/08 12:18:01;;;;;;;1999.90;999.90;;;7.40;99.90;;;;;;5052701;28;20451;-68